createdAt,value
2019-03-27T00:00:03.066Z,67.19
2019-03-27T00:02:34.786Z,67.13
2019-03-27T00:05:05.023Z,67.47
2019-03-27T00:07:35.096Z,67.30
2019-03-27T00:10:06.232Z,67.24
2019-03-27T00:12:36.293Z,67.25
2019-03-27T00:15:13.119Z,67.19
2019-03-27T00:17:39.919Z,67.13
2019-03-27T00:20:11.574Z,66.92
2019-03-27T00:22:42.716Z,66.89
2019-03-27T00:25:13.068Z,66.75
2019-03-27T00:27:43.242Z,66.47
2019-03-27T00:30:13.317Z,66.79
2019-03-27T00:32:43.390Z,66.87
2019-03-27T00:35:13.556Z,66.80
2019-03-27T00:37:43.616Z,67.01
2019-03-27T00:40:13.983Z,66.83
2019-03-27T00:42:44.061Z,66.85
2019-03-27T00:45:25.925Z,67.08
2019-03-27T00:47:45.969Z,67.12
2019-03-27T00:50:16.136Z,66.87
2019-03-27T00:52:46.192Z,67.06
2019-03-27T00:55:16.646Z,67.21
2019-03-27T00:57:46.740Z,67.28
2019-03-27T01:00:24.889Z,67.20
2019-03-27T01:02:54.965Z,67.12
2019-03-27T01:05:25.035Z,67.40
2019-03-27T01:07:55.104Z,67.53
2019-03-27T01:10:25.184Z,67.66
2019-03-27T01:12:55.244Z,67.52
2019-03-27T01:15:38.877Z,67.48
2019-03-27T01:17:57.109Z,67.64
2019-03-27T01:20:27.164Z,67.75
2019-03-27T01:22:58.219Z,67.98
2019-03-27T01:25:28.279Z,68.12
2019-03-27T01:27:58.333Z,68.32
2019-03-27T01:30:29.372Z,68.44
2019-03-27T01:33:00.400Z,68.42
2019-03-27T01:35:30.471Z,68.37
2019-03-27T01:38:01.508Z,68.32
2019-03-27T01:40:32.548Z,68.29
2019-03-27T01:43:02.614Z,68.34
2019-03-27T01:45:32.696Z,68.50
2019-03-27T01:48:02.754Z,68.34
2019-03-27T01:50:32.834Z,68.52
2019-03-27T01:53:02.911Z,68.42
2019-03-27T01:55:33.013Z,68.63
2019-03-27T01:58:03.067Z,68.65
2019-03-27T02:00:33.220Z,68.43
2019-03-27T02:03:03.280Z,68.77
2019-03-27T02:05:33.331Z,68.86
2019-03-27T02:08:03.406Z,69.02
2019-03-27T02:10:33.459Z,69.19
2019-03-27T02:13:03.549Z,69.26
2019-03-27T02:15:33.600Z,69.18
2019-03-27T02:18:03.699Z,69.29
2019-03-27T02:20:33.759Z,69.23
2019-03-27T02:23:03.837Z,69.27
2019-03-27T02:25:33.884Z,69.19
2019-03-27T02:28:03.969Z,69.33
2019-03-27T02:30:34.035Z,69.52
2019-03-27T02:33:04.137Z,69.07
2019-03-27T02:35:34.184Z,68.98
2019-03-27T02:38:04.299Z,69.17
2019-03-27T02:40:34.371Z,69.16
2019-03-27T02:43:04.411Z,69.13
2019-03-27T02:45:34.466Z,69.55
2019-03-27T02:48:04.527Z,69.42
2019-03-27T02:50:34.589Z,69.68
2019-03-27T02:53:04.713Z,69.76
2019-03-27T02:55:34.824Z,69.59
2019-03-27T02:58:04.954Z,69.61
2019-03-27T03:00:35.289Z,69.42
2019-03-27T03:03:05.394Z,69.42
2019-03-27T03:05:35.447Z,69.72
2019-03-27T03:08:05.625Z,70.08
2019-03-27T03:10:35.699Z,69.96
2019-03-27T03:13:05.758Z,69.71
2019-03-27T03:15:35.812Z,69.63
2019-03-27T03:18:05.865Z,69.39
2019-03-27T03:20:35.936Z,69.73
2019-03-27T03:23:05.998Z,69.57
2019-03-27T03:25:36.456Z,69.35
2019-03-27T03:28:06.519Z,69.47
2019-03-27T03:30:36.575Z,69.33
2019-03-27T03:33:06.684Z,69.54
2019-03-27T03:35:36.737Z,69.54
2019-03-27T03:38:06.806Z,69.51
2019-03-27T03:40:37.927Z,70.05
2019-03-27T03:43:09.341Z,70.14
2019-03-27T03:45:39.409Z,70.10
2019-03-27T03:48:09.472Z,69.81
2019-03-27T03:50:44.119Z,70.28
2019-03-27T03:53:15.345Z,70.31
2019-03-27T03:55:45.616Z,70.33
2019-03-27T03:58:16.825Z,70.20
2019-03-27T04:00:48.132Z,70.04
2019-03-27T04:03:18.329Z,70.03
2019-03-27T04:05:48.386Z,70.02
2019-03-27T04:08:18.465Z,70.17
2019-03-27T04:10:48.519Z,70.89
2019-03-27T04:13:18.584Z,71.26
2019-03-27T04:15:48.655Z,70.93
2019-03-27T04:18:18.727Z,70.92
2019-03-27T04:20:48.807Z,70.97
2019-03-27T04:23:18.861Z,70.87
2019-03-27T04:26:09.007Z,70.68
2019-03-27T04:28:20.739Z,71.18
2019-03-27T04:30:50.823Z,70.62
2019-03-27T04:33:20.883Z,70.39
2019-03-27T04:35:50.957Z,70.42
2019-03-27T04:38:21.992Z,70.42
2019-03-27T04:40:52.077Z,70.45
2019-03-27T04:43:22.136Z,70.16
2019-03-27T04:45:52.476Z,70.46
2019-03-27T04:48:22.555Z,70.21
2019-03-27T04:50:52.627Z,70.13
2019-03-27T04:53:22.730Z,69.98
2019-03-27T04:55:52.813Z,69.95
2019-03-27T04:58:22.888Z,69.68
2019-03-27T05:00:52.939Z,69.58
2019-03-27T05:03:23.117Z,69.55
2019-03-27T05:05:53.189Z,69.62
2019-03-27T05:08:23.300Z,69.68
2019-03-27T05:10:54.443Z,69.65
2019-03-27T05:13:24.515Z,70.02
2019-03-27T05:15:54.588Z,69.88
2019-03-27T05:18:24.640Z,69.78
2019-03-27T05:20:54.714Z,69.61
2019-03-27T05:23:24.783Z,69.80
2019-03-27T05:25:54.887Z,70.20
2019-03-27T05:28:24.942Z,70.03
2019-03-27T05:30:55.027Z,69.91
2019-03-27T05:33:25.107Z,69.97
2019-03-27T05:35:55.220Z,69.89
2019-03-27T05:38:25.286Z,70.05
2019-03-27T05:40:57.847Z,70.20
2019-03-27T05:43:27.922Z,69.92
2019-03-27T05:45:57.986Z,69.84
2019-03-27T05:48:28.048Z,69.54
2019-03-27T05:50:58.140Z,69.79
2019-03-27T05:53:28.235Z,70.03
2019-03-27T05:55:58.406Z,69.91
2019-03-27T05:58:28.483Z,70.12
2019-03-27T06:00:58.589Z,70.41
2019-03-27T06:03:28.645Z,70.45
2019-03-27T06:05:58.757Z,69.99
2019-03-27T06:08:28.821Z,70.17
2019-03-27T06:10:58.899Z,70.20
2019-03-27T06:13:28.971Z,70.14
2019-03-27T06:15:59.051Z,70.03
2019-03-27T06:18:29.121Z,70.01
2019-03-27T06:20:59.264Z,70.20
2019-03-27T06:23:29.382Z,70.62
2019-03-27T06:25:59.460Z,70.46
2019-03-27T06:28:29.559Z,70.44
2019-03-27T06:30:59.637Z,70.39
2019-03-27T06:33:29.713Z,70.12
2019-03-27T06:35:59.811Z,70.23
2019-03-27T06:38:29.883Z,70.18
2019-03-27T06:40:59.965Z,70.05
2019-03-27T06:43:30.048Z,70.02
2019-03-27T06:46:00.187Z,70.16
2019-03-27T06:48:30.299Z,70.69
2019-03-27T06:51:00.404Z,70.39
2019-03-27T06:53:30.467Z,71.15
2019-03-27T06:56:00.533Z,71.44
2019-03-27T06:58:30.600Z,71.47
2019-03-27T07:01:00.749Z,71.03
2019-03-27T07:03:30.845Z,70.61
2019-03-27T07:06:00.895Z,71.17
2019-03-27T07:08:30.992Z,70.83
2019-03-27T07:11:01.065Z,70.76
2019-03-27T07:13:31.177Z,70.21
2019-03-27T07:16:01.244Z,69.97
2019-03-27T07:18:40.125Z,69.88
2019-03-27T07:21:03.059Z,69.55
2019-03-27T07:23:33.148Z,69.98
2019-03-27T07:26:03.281Z,69.94
2019-03-27T07:28:33.360Z,70.13
2019-03-27T07:31:03.419Z,69.90
2019-03-27T07:33:33.541Z,69.93
2019-03-27T07:36:03.697Z,70.10
2019-03-27T07:38:33.826Z,70.48
2019-03-27T07:41:03.970Z,69.86
2019-03-27T07:43:34.548Z,69.77
2019-03-27T07:46:05.936Z,69.33
2019-03-27T07:48:36.017Z,68.82
2019-03-27T07:51:06.178Z,69.17
2019-03-27T07:53:36.421Z,69.72
2019-03-27T07:56:06.523Z,69.55
2019-03-27T07:58:36.779Z,69.17
2019-03-27T08:01:06.957Z,69.26
2019-03-27T08:03:37.039Z,69.50
2019-03-27T08:06:07.162Z,68.93
2019-03-27T08:08:37.254Z,68.33
2019-03-27T08:11:07.348Z,67.96
2019-03-27T08:13:37.525Z,68.01
2019-03-27T08:16:07.643Z,67.04
2019-03-27T08:18:37.795Z,66.76
2019-03-27T08:21:09.029Z,66.38
2019-03-27T08:23:39.188Z,65.86
2019-03-27T08:26:09.295Z,65.46
2019-03-27T08:28:39.440Z,65.53
2019-03-27T08:31:09.528Z,65.48
2019-03-27T08:33:39.597Z,65.56
2019-03-27T08:36:09.754Z,64.96
2019-03-27T08:38:39.815Z,64.48
2019-03-27T08:41:09.983Z,64.59
2019-03-27T08:43:40.053Z,64.09
2019-03-27T08:46:10.200Z,63.84
2019-03-27T08:48:40.325Z,63.68
2019-03-27T08:51:10.523Z,64.29
2019-03-27T08:53:40.633Z,64.06
2019-03-27T08:56:10.776Z,63.79
2019-03-27T08:58:40.939Z,63.76
2019-03-27T09:01:11.105Z,63.59
2019-03-27T09:03:41.217Z,63.84
2019-03-27T09:06:11.307Z,63.99
2019-03-27T09:08:41.401Z,63.49
2019-03-27T09:11:11.581Z,63.19
2019-03-27T09:13:41.692Z,63.26
2019-03-27T09:16:11.842Z,63.41
2019-03-27T09:18:42.067Z,62.72
2019-03-27T09:21:12.349Z,63.26
2019-03-27T09:23:45.788Z,62.49
2019-03-27T09:26:15.302Z,62.51
2019-03-27T09:28:45.381Z,62.64
2019-03-27T09:31:15.455Z,62.21
2019-03-27T09:33:45.678Z,61.70
2019-03-27T09:36:16.568Z,60.39
2019-03-27T09:38:46.723Z,60.55
2019-03-27T09:41:16.796Z,60.84
2019-03-27T09:43:46.989Z,59.78
2019-03-27T09:46:17.131Z,60.09
2019-03-27T09:48:47.317Z,59.01
2019-03-27T09:51:17.468Z,58.49
2019-03-27T09:53:47.558Z,57.90
2019-03-27T09:56:19.356Z,57.50
2019-03-27T09:58:49.540Z,56.92
2019-03-27T10:01:19.651Z,57.55
2019-03-27T10:03:49.774Z,57.56
2019-03-27T10:06:19.889Z,57.31
2019-03-27T10:08:50.004Z,56.62
2019-03-27T10:11:23.816Z,56.58
2019-03-27T10:13:52.926Z,56.51
2019-03-27T10:16:22.977Z,56.93
2019-03-27T10:18:53.061Z,58.12
2019-03-27T10:21:23.138Z,58.15
2019-03-27T10:23:53.216Z,57.64
2019-03-27T10:26:23.392Z,57.01
2019-03-27T10:28:53.551Z,56.15
2019-03-27T10:31:23.610Z,55.64
2019-03-27T10:33:53.720Z,56.86
2019-03-27T10:36:23.843Z,56.47
2019-03-27T10:38:53.912Z,56.87
2019-03-27T10:41:25.018Z,56.63
2019-03-27T10:43:55.129Z,56.68
2019-03-27T10:46:26.279Z,56.22
2019-03-27T10:48:56.389Z,56.11
2019-03-27T10:51:26.472Z,56.47
2019-03-27T10:53:56.560Z,56.26
2019-03-27T10:56:26.636Z,55.68
2019-03-27T10:58:56.788Z,55.21
2019-03-27T11:01:26.871Z,55.36
2019-03-27T11:03:57.055Z,55.15
2019-03-27T11:06:27.216Z,54.64
2019-03-27T11:08:57.295Z,55.51
2019-03-27T11:11:27.403Z,55.67
2019-03-27T11:13:57.476Z,55.22
2019-03-27T11:16:27.570Z,54.18
2019-03-27T11:18:57.642Z,53.04
2019-03-27T11:21:27.726Z,53.16
2019-03-27T11:23:57.799Z,52.43
2019-03-27T11:26:27.900Z,50.71
2019-03-27T11:28:58.938Z,50.43
2019-03-27T11:31:29.060Z,50.37
2019-03-27T11:33:59.131Z,51.29
2019-03-27T11:36:29.278Z,50.55
2019-03-27T11:38:59.397Z,49.95
2019-03-27T11:41:29.481Z,50.62
2019-03-27T11:43:59.648Z,50.58
2019-03-27T11:46:34.435Z,50.11
2019-03-27T11:49:04.724Z,49.93
2019-03-27T11:51:34.793Z,48.99
2019-03-27T11:54:05.023Z,49.51
2019-03-27T11:56:35.106Z,49.04
2019-03-27T11:59:05.274Z,49.64
2019-03-27T12:01:41.970Z,50.03
2019-03-27T12:04:07.173Z,49.95
2019-03-27T12:06:37.252Z,50.55
2019-03-27T12:09:08.190Z,50.44
2019-03-27T12:11:38.797Z,50.14
2019-03-27T12:14:12.077Z,50.06
2019-03-27T12:16:40.647Z,49.09
2019-03-27T12:19:10.721Z,47.46
2019-03-27T12:21:40.821Z,49.30
2019-03-27T12:24:10.881Z,48.91
2019-03-27T12:26:40.972Z,48.27
2019-03-27T12:29:11.041Z,49.15
2019-03-27T12:31:41.143Z,49.67
2019-03-27T12:34:11.231Z,50.07
2019-03-27T12:36:41.412Z,49.68
2019-03-27T12:39:11.496Z,49.64
2019-03-27T12:41:41.642Z,48.39
2019-03-27T12:44:11.719Z,47.96
2019-03-27T12:46:41.807Z,47.87
2019-03-27T12:49:11.880Z,47.63
2019-03-27T12:51:41.948Z,48.05
2019-03-27T12:54:12.350Z,48.25
2019-03-27T12:56:42.454Z,48.36
2019-03-27T12:59:12.539Z,47.83
2019-03-27T13:01:42.627Z,47.22
2019-03-27T13:04:13.710Z,46.89
2019-03-27T13:06:43.958Z,47.13
2019-03-27T13:09:14.026Z,47.29
2019-03-27T13:11:44.118Z,46.77
2019-03-27T13:14:14.170Z,46.33
2019-03-27T13:16:44.265Z,46.21
2019-03-27T13:19:14.372Z,46.29
2019-03-27T13:21:44.460Z,46.18
2019-03-27T13:24:14.600Z,47.01
2019-03-27T13:26:46.836Z,47.29
2019-03-27T13:29:17.009Z,46.90
2019-03-27T13:31:47.093Z,45.99
2019-03-27T13:34:17.183Z,46.58
2019-03-27T13:36:48.794Z,46.13
2019-03-27T13:39:18.955Z,45.89
2019-03-27T13:41:49.003Z,45.96
2019-03-27T13:44:19.168Z,46.39
2019-03-27T13:46:49.272Z,45.93
2019-03-27T13:49:19.392Z,45.83
2019-03-27T13:51:49.437Z,46.05
2019-03-27T13:54:19.605Z,46.17
2019-03-27T13:56:49.668Z,46.03
2019-03-27T13:59:19.748Z,46.18
2019-03-27T14:01:49.836Z,46.34
2019-03-27T14:04:20.526Z,46.73
2019-03-27T14:06:50.716Z,47.12
2019-03-27T14:09:20.951Z,46.78
2019-03-27T14:11:51.006Z,46.93
2019-03-27T14:14:21.071Z,46.43
2019-03-27T14:16:52.178Z,46.87
2019-03-27T14:19:22.333Z,46.65
2019-03-27T14:21:54.872Z,45.24
2019-03-27T14:24:24.224Z,45.55
2019-03-27T14:26:54.295Z,45.74
2019-03-27T14:29:24.353Z,44.50
2019-03-27T14:31:54.443Z,44.18
2019-03-27T14:34:24.503Z,45.97
2019-03-27T14:36:55.588Z,45.57
2019-03-27T14:39:25.755Z,45.71
2019-03-27T14:41:55.859Z,46.13
2019-03-27T14:44:26.633Z,46.14
2019-03-27T14:46:57.585Z,46.19
2019-03-27T14:49:27.650Z,45.52
2019-03-27T14:52:07.693Z,45.33
2019-03-27T14:54:29.444Z,44.93
2019-03-27T14:56:59.520Z,45.31
2019-03-27T14:59:29.579Z,45.83
2019-03-27T15:01:59.659Z,46.30
2019-03-27T15:04:29.764Z,45.80
2019-03-27T15:06:59.809Z,46.15
2019-03-27T15:09:29.961Z,45.58
2019-03-27T15:12:00.186Z,46.18
2019-03-27T15:14:30.266Z,46.56
2019-03-27T15:17:00.367Z,46.74
2019-03-27T15:19:30.489Z,46.34
2019-03-27T15:22:00.595Z,46.36
2019-03-27T15:24:31.554Z,45.77
2019-03-27T15:27:01.647Z,47.06
2019-03-27T15:29:31.992Z,46.95
2019-03-27T15:32:02.117Z,47.56
2019-03-27T15:34:32.261Z,48.24
2019-03-27T15:37:02.389Z,48.15
2019-03-27T15:39:32.493Z,48.18
2019-03-27T15:42:02.559Z,48.99
2019-03-27T15:44:32.819Z,49.23
2019-03-27T15:47:03.006Z,50.17
2019-03-27T15:49:33.320Z,50.31
2019-03-27T15:52:03.574Z,50.78
2019-03-27T15:54:33.709Z,50.74
2019-03-27T15:57:03.927Z,50.92
2019-03-27T15:59:34.058Z,50.76
2019-03-27T16:02:06.102Z,51.11
2019-03-27T16:04:38.737Z,50.77
2019-03-27T16:07:09.423Z,50.94
2019-03-27T16:09:39.666Z,51.14
2019-03-27T16:12:09.816Z,51.06
2019-03-27T16:14:39.917Z,51.52
2019-03-27T16:17:13.542Z,51.84
2019-03-27T16:19:42.655Z,51.63
2019-03-27T16:22:12.740Z,51.72
2019-03-27T16:24:42.875Z,51.79
2019-03-27T16:27:13.919Z,51.82
2019-03-27T16:29:44.045Z,52.22
2019-03-27T16:32:14.172Z,52.70
2019-03-27T16:34:44.289Z,52.93
2019-03-27T16:37:14.354Z,52.39
2019-03-27T16:39:44.464Z,52.36
2019-03-27T16:42:14.531Z,52.11
2019-03-27T16:44:44.659Z,51.84
2019-03-27T16:47:14.814Z,51.70
2019-03-27T16:49:45.035Z,52.10
2019-03-27T16:52:15.104Z,51.75
2019-03-27T16:54:45.202Z,51.70
2019-03-27T16:57:15.287Z,51.28
2019-03-27T16:59:45.392Z,51.29
2019-03-27T17:02:15.472Z,51.42
2019-03-27T17:04:45.617Z,51.74
2019-03-27T17:07:16.751Z,51.89
2019-03-27T17:09:46.804Z,51.86
2019-03-27T17:12:17.042Z,51.99
2019-03-27T17:14:47.101Z,52.13
2019-03-27T17:17:17.198Z,52.07
2019-03-27T17:19:47.276Z,52.06
2019-03-27T17:22:19.777Z,52.30
2019-03-27T17:24:49.268Z,52.32
2019-03-27T17:27:19.379Z,52.03
2019-03-27T17:29:49.444Z,51.67
2019-03-27T17:32:19.513Z,51.90
2019-03-27T17:34:51.967Z,52.27
2019-03-27T17:37:21.418Z,52.00
2019-03-27T17:39:51.480Z,52.15
2019-03-27T17:42:21.662Z,51.99
2019-03-27T17:44:52.249Z,51.91
2019-03-27T17:47:22.432Z,51.96
2019-03-27T17:49:52.537Z,51.76
2019-03-27T17:52:22.613Z,51.72
2019-03-27T17:54:52.724Z,51.73
2019-03-27T17:57:22.810Z,51.75
2019-03-27T17:59:52.938Z,51.70
2019-03-27T18:02:23.573Z,51.78
2019-03-27T18:04:53.655Z,51.85
2019-03-27T18:07:23.807Z,51.87
2019-03-27T18:09:53.910Z,51.77
2019-03-27T18:12:24.044Z,51.85
2019-03-27T18:14:54.139Z,51.83
2019-03-27T18:17:24.291Z,52.11
2019-03-27T18:19:54.382Z,52.03
2019-03-27T18:22:24.523Z,52.07
2019-03-27T18:24:54.616Z,52.16
2019-03-27T18:27:24.714Z,52.16
2019-03-27T18:29:54.977Z,52.23
2019-03-27T18:32:25.121Z,52.19
2019-03-27T18:34:55.251Z,52.22
2019-03-27T18:37:26.494Z,52.08
2019-03-27T18:39:56.548Z,52.14
2019-03-27T18:42:26.655Z,52.38
2019-03-27T18:44:56.701Z,52.29
2019-03-27T18:47:27.740Z,52.26
2019-03-27T18:49:57.891Z,52.37
2019-03-27T18:52:31.035Z,52.28
2019-03-27T18:55:01.160Z,52.05
2019-03-27T18:57:31.224Z,52.27
2019-03-27T19:00:01.326Z,52.36
2019-03-27T19:02:31.376Z,52.09
2019-03-27T19:05:01.476Z,52.09
2019-03-27T19:07:31.541Z,51.70
2019-03-27T19:10:01.644Z,51.46
2019-03-27T19:12:31.802Z,51.70
2019-03-27T19:15:01.948Z,51.35
2019-03-27T19:17:32.140Z,50.99
2019-03-27T19:20:02.671Z,51.00
2019-03-27T19:22:32.861Z,50.89
2019-03-27T19:25:02.947Z,50.94
2019-03-27T19:27:33.097Z,51.45
2019-03-27T19:30:03.258Z,51.31
2019-03-27T19:32:33.418Z,51.51
2019-03-27T19:35:03.508Z,51.28
2019-03-27T19:37:33.658Z,51.13
2019-03-27T19:40:04.127Z,51.23
2019-03-27T19:42:34.302Z,51.50
2019-03-27T19:45:04.941Z,51.66
2019-03-27T19:47:35.196Z,51.31
2019-03-27T19:50:06.221Z,51.25
2019-03-27T19:52:36.342Z,51.35
2019-03-27T19:55:07.332Z,51.43
2019-03-27T19:57:37.428Z,51.45
2019-03-27T20:00:09.780Z,51.44
2019-03-27T20:02:40.048Z,51.70
2019-03-27T20:05:10.261Z,51.79
2019-03-27T20:07:40.327Z,51.94
2019-03-27T20:10:10.968Z,51.99
2019-03-27T20:12:41.105Z,52.33
2019-03-27T20:15:12.840Z,52.19
2019-03-27T20:17:43.274Z,52.41
2019-03-27T20:20:13.536Z,52.36
2019-03-27T20:22:43.626Z,52.42
2019-03-27T20:25:14.915Z,52.55
2019-03-27T20:27:45.264Z,52.81
2019-03-27T20:30:16.245Z,52.90
2019-03-27T20:32:46.444Z,53.04
2019-03-27T20:35:16.529Z,53.05
2019-03-27T20:37:46.591Z,53.19
2019-03-27T20:40:16.830Z,53.35
2019-03-27T20:42:46.961Z,53.49
2019-03-27T20:45:18.213Z,53.48
2019-03-27T20:47:48.323Z,53.73
2019-03-27T20:50:18.702Z,54.11
2019-03-27T20:52:48.777Z,54.04
2019-03-27T20:55:29.552Z,54.33
2019-03-27T20:57:50.669Z,54.79
2019-03-27T21:00:21.100Z,55.10
2019-03-27T21:02:51.256Z,55.02
2019-03-27T21:05:21.478Z,55.15
2019-03-27T21:07:51.663Z,55.62
2019-03-27T21:10:21.920Z,56.04
2019-03-27T21:12:51.975Z,56.56
2019-03-27T21:15:22.093Z,57.32
2019-03-27T21:17:52.175Z,57.92
2019-03-27T21:20:22.275Z,58.48
2019-03-27T21:22:52.329Z,58.74
2019-03-27T21:25:22.452Z,59.07
2019-03-27T21:27:52.611Z,59.53
2019-03-27T21:30:22.693Z,59.89
2019-03-27T21:32:52.819Z,60.37
2019-03-27T21:35:23.016Z,61.04
2019-03-27T21:37:53.160Z,61.00
2019-03-27T21:40:23.251Z,61.17
2019-03-27T21:42:54.602Z,61.09
2019-03-27T21:45:24.805Z,60.98
2019-03-27T21:47:54.893Z,61.10
2019-03-27T21:50:25.050Z,61.21
2019-03-27T21:53:00.805Z,61.38
2019-03-27T21:55:26.959Z,61.48
2019-03-27T21:57:57.195Z,61.42
2019-03-27T22:00:45.255Z,61.21
2019-03-27T22:03:15.324Z,60.94
2019-03-27T22:05:45.620Z,60.74
2019-03-27T22:08:15.707Z,60.63
2019-03-27T22:10:45.929Z,60.63
2019-03-27T22:13:16.023Z,60.57
2019-03-27T22:15:46.157Z,60.76
2019-03-27T22:18:16.270Z,60.63
2019-03-27T22:20:46.402Z,60.45
2019-03-27T22:23:16.512Z,60.38
2019-03-27T22:25:46.927Z,60.62
2019-03-27T22:28:17.060Z,60.67
2019-03-27T22:30:47.159Z,60.92
2019-03-27T22:33:17.395Z,60.96
2019-03-27T22:35:47.524Z,61.00
2019-03-27T22:38:17.660Z,61.17
2019-03-27T22:40:47.785Z,61.15
2019-03-27T22:43:17.959Z,61.30
2019-03-27T22:45:48.065Z,61.31
2019-03-27T22:48:18.178Z,61.30
2019-03-27T22:50:48.333Z,61.84
2019-03-27T22:53:18.452Z,62.14
2019-03-27T22:55:50.181Z,62.33
2019-03-27T22:58:20.432Z,62.37
2019-03-27T23:00:52.370Z,62.57
2019-03-27T23:03:22.842Z,62.56
2019-03-27T23:05:52.958Z,62.60
2019-03-27T23:08:24.138Z,62.80
2019-03-27T23:10:54.340Z,62.99
2019-03-27T23:13:24.484Z,62.96
2019-03-27T23:15:54.621Z,63.29
2019-03-27T23:18:24.728Z,63.19
2019-03-27T23:20:54.898Z,63.01
2019-03-27T23:23:25.006Z,63.22
2019-03-27T23:26:02.924Z,63.54
2019-03-27T23:28:26.938Z,63.99
2019-03-27T23:30:57.087Z,63.86
2019-03-27T23:33:28.311Z,63.82
2019-03-27T23:35:58.458Z,64.04
2019-03-27T23:38:28.561Z,64.60
2019-03-27T23:40:58.729Z,64.71
2019-03-27T23:43:28.832Z,65.02
2019-03-27T23:45:59.037Z,65.32
2019-03-27T23:48:29.553Z,65.26
2019-03-27T23:50:59.644Z,65.46
2019-03-27T23:53:29.848Z,65.38
2019-03-27T23:55:59.975Z,65.25
2019-03-27T23:58:30.119Z,65.18
